Latest Coastal Weather Observations for Ulladulla

IDN60701

Issued at 11:42 pm EST Tuesday 27 September 2016 (issued every 10 minutes, with the page automatically refreshed every 10 minutes)

About coastal observations | Map of coastal stations | Coastal observations for NSW | Marine services | Other Formats
Station Details ID: 069138 Name: ULLADULLA AWS Lat: -35.36 Lon: 150.48 Height: 35.7 m
Data from the previous 72 hours. | See also: Recent months at Ulladulla
Date/Time
EST
Temp
°C
Wind Pressure Rain since
9am
mm
Weather Cloud Vis
km
Sea
Height
m
Swell
Dir  Spd
kts
Gust
kts
hPa Trend Height
m
Period
s
Dir
27/11:30pm - W 4 6 1012.6 - 0.0 - - - - - - -
27/11:00pm - W 4 6 1012.6 - 0.0 - - - - - - -
27/10:30pm - W 4 5 1012.6 - 0.0 - - - - - - -
27/10:00pm - WSW 3 5 1012.6 - 0.0 - - - - - - -
27/09:30pm - WSW 3 6 1012.4 - 0.0 - - - - - - -
27/09:00pm - W 3 5 1012.3 - 0.0 - - - - - - -
27/08:30pm - W 3 4 1012.2 - 0.0 - - - - - - -
27/08:00pm - W 3 4 1012.1 - 0.0 - - - - - - -
27/07:30pm - WSW 3 5 1011.9 - 0.0 - - - - - - -
27/07:00pm - WSW 4 5 1011.5 - 0.0 - - - - - - -
27/06:30pm - SSW 5 10 1011.2 - 0.0 - - - - - - -
27/06:00pm - SSW 10 17 1010.4 - 0.0 - - - - - - -
27/05:30pm - S 11 16 1010.0 - 0.0 - - - - - - -
27/05:00pm - SSW 10 17 1009.6 - 0.0 - - - - - - -
27/04:30pm - S 10 16 1009.1 - 0.0 - - - - - - -
27/04:00pm - S 10 16 1008.7 - 0.0 - - - - - - -
27/03:30pm - S 16 22 1008.1 - 0.0 - - - - - - -
27/03:00pm - S 18 25 1007.8 - 0.0 - - - - - - -
27/02:30pm - S 21 27 1007.5 - 0.0 - - - - - - -
27/02:00pm - S 16 23 1007.3 - 0.0 - - - - - - -
27/01:30pm - S 19 27 1007.0 - 0.0 - - - - - - -
27/01:00pm - S 19 27 1006.5 - 0.0 - - - - - - -
27/12:30pm - W 11 20 1005.9 - 0.0 - - - - - - -
27/12:00pm - W 9 15 1005.9 - 0.0 - - - - - - -
27/11:30am - W 6 13 1006.0 - 0.0 - - - - - - -
27/11:00am - W 8 14 1006.4 - 0.0 - - - - - - -
27/10:30am - W 9 17 1007.0 - 0.0 - - - - - - -
27/10:00am - NW 10 23 1007.3 - 0.0 - - - - - - -
27/09:30am - NNW 6 9 1008.0 - 0.0 - - - - - - -
27/09:00am - N 5 8 1008.2 - 0.0 - - - - - - -
27/08:30am - NNW 4 7 1008.6 - 0.0 - - - - - - -
27/08:00am - NNW 5 8 1008.3 - 0.0 - - - - - - -
27/07:30am - NNW 4 7 1008.4 - 0.0 - - - - - - -
27/07:00am - WSW 1 3 1008.8 - 0.0 - - - - - - -
27/06:30am - NW 4 8 1008.8 - 0.0 - - - - - - -
27/06:00am - NW 2 3 1008.9 - 0.0 - - - - - - -
27/05:30am - NW 3 6 1009.1 - 0.0 - - - - - - -
27/05:00am - NW 2 3 1009.1 - 0.0 - - - - - - -
27/04:30am - NNW 2 3 1009.3 - 0.0 - - - - - - -
27/04:00am - N 4 6 1009.7 - 0.0 - - - - - - -
27/03:30am - NW 3 5 1009.8 - 0.0 - - - - - - -
27/03:00am - W 3 5 1009.8 - 0.0 - - - - - - -
27/02:30am - NW 3 5 1010.2 - 0.0 - - - - - - -
27/02:00am - WNW 4 5 1010.6 - 0.0 - - - - - - -
27/01:30am - W 3 5 1011.1 - 0.0 - - - - - - -
27/01:00am - WSW 3 4 1011.4 - 0.0 - - - - - - -
27/12:30am 10.7 W 4 8 1011.3 - 0.0 - - - - - - -
27/12:00am - WSW 3 5 1011.6 - 0.0 - - - - - - -
 
Date/Time
EST
Temp
°C
Wind Pressure Rain since
9am
mm
Weather Cloud Vis
km
Sea
Height
m
Swell
Dir  Spd
kts
Gust
kts
hPa Trend Height
m
Period
s
Dir
26/11:30pm 10.4 WSW 4 6 1012.0 - 0.0 - - - - - - -
26/11:00pm - W 4 7 1012.1 - 0.0 - - - - - - -
26/10:30pm - WSW 2 4 1012.2 - 0.0 - - - - - - -
26/10:00pm - W 4 5 1012.6 - 0.0 - - - - - - -
26/09:30pm - WSW 4 5 1012.2 - 0.0 - - - - - - -
26/09:00pm - WSW 4 5 1012.1 - 0.0 - - - - - - -
26/08:30pm - WSW 4 5 1011.9 - 0.0 - - - - - - -
26/08:00pm - E 3 4 1011.9 - 0.0 - - - - - - -
26/07:30pm - CALM 0 0 1011.6 - 0.0 - - - - - - -
26/07:00pm - CALM 0 0 1011.4 - 0.0 - - - - - - -
26/06:30pm 13.4 CALM 0 0 1011.1 - 0.0 - - - - - - -
26/06:00pm - E 1 2 1010.9 - 0.0 - - - - - - -
26/05:30pm - E 2 3 1010.6 - 0.0 - - - - - - -
26/05:00pm - ENE 1 3 1010.2 - 0.0 - - - - - - -
26/04:30pm - ENE 2 3 1010.1 - 0.0 - - - - - - -
26/04:00pm - ENE 2 6 1009.9 - 0.0 - - - - - - -
26/03:30pm - ESE 3 7 1009.7 - 0.0 - - - - - - -
26/03:00pm - SE 4 7 1009.7 - 0.0 - - - - - - -
26/02:30pm - SE 4 7 1009.9 - 0.0 - - - - - - -
26/02:00pm - SSE 7 9 1009.9 - 0.0 - - - - - - -
26/01:30pm - SSE 6 10 1010.1 - 0.0 - - - - - - -
26/01:00pm - SSE 7 10 1010.3 - 0.0 - - - - - - -
26/12:30pm - SE 6 9 1010.6 - 0.0 - - - - - - -
26/12:00pm - SE 4 7 1011.0 - 0.0 - - - - - - -
26/11:30am - SE 5 8 1011.3 - 0.0 - - - - - - -
26/11:00am - SE 4 7 1011.6 - 0.0 - - - - - - -
26/10:30am - SE 3 6 1011.9 - 0.0 - - - - - - -
26/10:00am - S 4 5 1012.5 - 0.0 - - - - - - -
26/09:30am - S 4 7 1012.8 - 0.0 - - - - - - -
26/09:00am - SSW 4 7 1012.9 - 2.6 - - - - - - -
26/08:30am - SW 4 7 1013.1 - 2.6 - - - - - - -
26/08:00am - WSW 6 9 1013.1 - 2.6 - - - - - - -
26/07:30am - WSW 4 8 1012.8 - 2.6 - - - - - - -
26/07:00am - WSW 4 7 1012.8 - 2.6 - - - - - - -
26/06:30am - WSW 3 5 1012.7 - 2.6 - - - - - - -
26/06:00am - WSW 3 4 1012.6 - 2.6 - - - - - - -
26/05:30am - W 2 4 1012.4 - 2.6 - - - - - - -
26/05:00am - WSW 3 4 1012.3 - 2.6 - - - - - - -
26/04:30am - W 2 5 1012.1 - 2.6 - - - - - - -
26/04:00am - W 3 5 1012.0 - 2.6 - - - - - - -
26/03:30am - WSW 3 5 1011.9 - 2.6 - - - - - - -
26/03:00am - WSW 3 5 1011.9 - 2.6 - - - - - - -
26/02:30am - SW 4 6 1011.9 - 2.6 - - - - - - -
26/02:00am - WSW 2 4 1012.0 - 2.6 - - - - - - -
26/01:30am - WSW 3 5 1012.0 - 2.6 - - - - - - -
26/01:00am - SW 2 3 1012.1 - 2.6 - - - - - - -
26/12:30am - SW 3 6 1012.3 - 2.6 - - - - - - -
26/12:00am - S 9 15 1012.0 - 2.6 - - - - - - -
 
Date/Time
EST
Temp
°C
Wind Pressure Rain since
9am
mm
Weather Cloud Vis
km
Sea
Height
m
Swell
Dir  Spd
kts
Gust
kts
hPa Trend Height
m
Period
s
Dir
25/11:30pm - SSW 7 17 1012.3 - 2.6 - - - - - - -
25/11:00pm - SW 4 8 1012.4 - 2.6 - - - - - - -
25/10:30pm - SSW 7 14 1012.0 - 2.6 - - - - - - -
25/10:00pm - SSW 11 17 1011.7 - 2.6 - - - - - - -
25/09:30pm - SSW 12 19 1011.9 - 2.6 - - - - - - -
25/09:00pm - SW 8 16 1011.8 - 2.0 Rain - - - - - -
25/08:30pm - S 13 19 1011.2 - 1.8 - - - - - - -
25/08:00pm - S 14 21 1010.9 - 1.4 - - - - - - -
25/07:30pm - S 15 19 1010.6 - 0.6 - - - - - - -
25/07:00pm - S 14 22 1009.9 - 0.2 - - - - - - -
25/06:30pm - S 15 22 1009.4 - 0.2 - - - - - - -
25/06:00pm - S 14 19 1009.0 - 0.2 - - - - - - -
25/05:30pm 15.6 S 14 20 1008.7 - 0.2 - - - - - - -
25/05:00pm 15.7 S 14 18 1008.3 - 0.2 - - - - - - -
25/04:30pm - S 13 17 1007.9 - 0.2 - - - - - - -
25/04:00pm - S 16 21 1007.5 - 0.0 - - - - - - -
25/03:30pm - S 13 19 1007.1 - 0.0 - - - - - - -
25/03:00pm - S 13 18 1006.7 - 0.0 - - - - - - -
25/02:30pm - S 14 21 1006.6 - 0.0 - - - - - - -
25/02:00pm - SSE 14 19 1006.0 - 0.0 - - - - - - -
25/01:30pm - SSE 12 18 1005.8 - 0.0 - - - - - - -
25/01:00pm - SSE 11 14 1005.6 - 0.0 - - - - - - -
25/12:30pm - S 10 15 1005.7 - 0.0 - - - - - - -
25/12:00pm - S 9 15 1005.5 - 0.0 - - - - - - -
25/11:30am - S 9 14 1005.3 - 0.0 - - - - - - -
25/11:00am - S 10 11 1005.4 - 0.0 - - - - - - -
25/10:30am - SSW 6 10 1005.4 - 0.0 - - - - - - -
25/10:00am - SSW 7 11 1005.4 - 0.0 - - - - - - -
25/09:30am - SW 6 9 1005.5 - 0.0 - - - - - - -
25/09:00am - SW 6 11 1005.4 - 0.0 - - - - - - -
25/08:30am - W 6 10 1005.3 - 0.0 - - - - - - -
25/08:00am - W 5 9 1005.1 - 0.0 - - - - - - -
25/07:30am - NW 4 8 1005.0 - 0.0 - - - - - - -
25/07:00am - NW 3 5 1005.2 - 0.0 - - - - - - -
25/06:30am - WNW 5 8 1005.1 - 0.0 - - - - - - -
25/06:00am - WNW 2 3 1004.9 - 0.0 - - - - - - -
25/05:30am - WNW 2 3 1004.6 - 0.0 - - - - - - -
25/05:00am - WNW 3 4 1004.6 - 0.0 - - - - - - -
25/04:30am - WNW 4 6 1004.4 - 0.0 - - - - - - -
25/04:00am - NW 2 3 1004.4 - 0.0 - - - - - - -
25/03:30am - WNW 3 4 1004.5 - 0.0 - - - - - - -
25/03:00am - WNW 2 4 1004.5 - 0.0 - - - - - - -
25/02:30am - NNW 4 6 1004.6 - 0.0 - - - - - - -
25/02:00am - CALM 0 2 1005.1 - 0.0 - - - - - - -
25/01:30am - NNW 3 4 1005.8 - 0.0 - - - - - - -
25/01:00am - NNW 3 4 1006.2 - 0.0 - - - - - - -
25/12:30am - N 3 4 1006.2 - 0.0 - - - - - - -
25/12:00am - N 3 5 1006.5 - 0.0 - - - - - - -

Other Formats:

Comma delimited format used in spreadsheet applications
http://www.bom.gov.au/fwo/IDN60701/IDN60701.94938.axf

JavaScript Object Notation format (JSON) in row-major order
http://www.bom.gov.au/fwo/IDN60701/IDN60701.94938.json